Catalina, Arizona
Current Conditions -  °F | °C
As of 7:58 AM on Thursday 23 Oct 2014 (Local Time) from KDMA Reporting Station
Clear Clear  
Wind Chill: 64°   Ceiling: Unl
Heat Index: 64°   Visibility: 10mi
Dew Point: 48°   Wind: 10mph
Humidity: 57%   Direction: 160°SSE
Pressure: 30.09"   Gusts: NA
Location:  32.48°N, 110.9°W
Report Text: KDMA 231458Z AUTO 16009KT 10SM CLR 18/09 A3009 RMK AO2 SLP157 T01760091 52012 $
Loading
Personal Weather Stations






























Interactive Weather Map
Tropical Storm Tracking
New forecast layout! Learn more

10-Day Weather Forecast

Advertisements
Track Severe Weather on mobile